sensor_id;sensor_type;location;lat;lon;timestamp;temperature;humidity
14022;DHT22;7086;48.116;11.580;2022-10-16T00:00:35;15.70;93.40
14022;DHT22;7086;48.116;11.580;2022-10-16T00:03:37;15.00;93.20
14022;DHT22;7086;48.116;11.580;2022-10-16T00:06:43;15.60;93.50
14022;DHT22;7086;48.116;11.580;2022-10-16T00:13:37;15.50;93.50
14022;DHT22;7086;48.116;11.580;2022-10-16T00:16:43;15.50;93.70
14022;DHT22;7086;48.116;11.580;2022-10-16T00:19:58;15.50;93.70
14022;DHT22;7086;48.116;11.580;2022-10-16T00:23:02;15.40;93.60
14022;DHT22;7086;48.116;11.580;2022-10-16T00:25:44;15.40;93.80
14022;DHT22;7086;48.116;11.580;2022-10-16T00:28:26;15.40;93.90
14022;DHT22;7086;48.116;11.580;2022-10-16T00:31:14;16.00;94.20
14022;DHT22;7086;48.116;11.580;2022-10-16T00:34:25;15.30;93.90
14022;DHT22;7086;48.116;11.580;2022-10-16T00:36:57;15.30;94.00
14022;DHT22;7086;48.116;11.580;2022-10-16T00:39:25;15.30;94.20
14022;DHT22;7086;48.116;11.580;2022-10-16T00:45:12;15.20;94.40
14022;DHT22;7086;48.116;11.580;2022-10-16T00:48:06;12.40;93.30
14022;DHT22;7086;48.116;11.580;2022-10-16T00:50:48;15.10;94.30
14022;DHT22;7086;48.116;11.580;2022-10-16T00:58:22;15.10;94.40
14022;DHT22;7086;48.116;11.580;2022-10-16T01:03:26;15.10;94.70
14022;DHT22;7086;48.116;11.580;2022-10-16T01:09:08;15.10;94.50
14022;DHT22;7086;48.116;11.580;2022-10-16T01:11:47;15.10;94.50
14022;DHT22;7086;48.116;11.580;2022-10-16T01:14:27;15.10;94.40
14022;DHT22;7086;48.116;11.580;2022-10-16T01:17:18;15.00;94.40
14022;DHT22;7086;48.116;11.580;2022-10-16T01:20:38;15.10;94.30
14022;DHT22;7086;48.116;11.580;2022-10-16T01:24:33;15.10;94.40
14022;DHT22;7086;48.116;11.580;2022-10-16T01:27:49;15.10;94.40
14022;DHT22;7086;48.116;11.580;2022-10-16T01:30:48;15.10;94.40
14022;DHT22;7086;48.116;11.580;2022-10-16T01:34:09;15.10;94.40
14022;DHT22;7086;48.116;11.580;2022-10-16T01:37:12;15.10;94.40
14022;DHT22;7086;48.116;11.580;2022-10-16T01:39:47;15.10;94.20
14022;DHT22;7086;48.116;11.580;2022-10-16T01:42:28;15.10;94.60
14022;DHT22;7086;48.116;11.580;2022-10-16T01:45:17;15.00;94.60
14022;DHT22;7086;48.116;11.580;2022-10-16T01:48:05;15.10;94.70
14022;DHT22;7086;48.116;11.580;2022-10-16T01:50:40;15.10;94.70
14022;DHT22;7086;48.116;11.580;2022-10-16T01:56:36;15.10;94.90
14022;DHT22;7086;48.116;11.580;2022-10-16T01:59:21;15.10;95.00
14022;DHT22;7086;48.116;11.580;2022-10-16T02:02:09;15.10;95.00
14022;DHT22;7086;48.116;11.580;2022-10-16T02:04:57;15.10;95.00
14022;DHT22;7086;48.116;11.580;2022-10-16T02:10:07;15.10;95.30
14022;DHT22;7086;48.116;11.580;2022-10-16T02:12:56;15.00;95.10
14022;DHT22;7086;48.116;11.580;2022-10-16T02:16:32;15.00;95.20
14022;DHT22;7086;48.116;11.580;2022-10-16T02:18:43;15.00;95.40
14022;DHT22;7086;48.116;11.580;2022-10-16T02:21:51;15.00;95.10
14022;DHT22;7086;48.116;11.580;2022-10-16T02:25:06;15.00;95.10
14022;DHT22;7086;48.116;11.580;2022-10-16T02:28:40;15.00;94.90
14022;DHT22;7086;48.116;11.580;2022-10-16T02:35:30;14.90;94.80
14022;DHT22;7086;48.116;11.580;2022-10-16T02:38:47;14.90;94.90
14022;DHT22;7086;48.116;11.580;2022-10-16T02:41:45;14.90;94.80
14022;DHT22;7086;48.116;11.580;2022-10-16T02:48:24;14.90;94.70
14022;DHT22;7086;48.116;11.580;2022-10-16T02:51:50;14.80;94.70
14022;DHT22;7086;48.116;11.580;2022-10-16T02:54:53;14.80;94.60
14022;DHT22;7086;48.116;11.580;2022-10-16T02:58:04;14.90;94.60
14022;DHT22;7086;48.116;11.580;2022-10-16T03:04:14;14.70;94.70
14022;DHT22;7086;48.116;11.580;2022-10-16T03:07:31;14.80;94.60
14022;DHT22;7086;48.116;11.580;2022-10-16T03:10:52;14.80;94.60
14022;DHT22;7086;48.116;11.580;2022-10-16T03:13:33;14.80;94.70
14022;DHT22;7086;48.116;11.580;2022-10-16T03:16:26;14.70;94.70
14022;DHT22;7086;48.116;11.580;2022-10-16T03:19:16;14.80;94.70
14022;DHT22;7086;48.116;11.580;2022-10-16T03:22:08;17.50;95.50
14022;DHT22;7086;48.116;11.580;2022-10-16T03:25:06;14.70;94.80
14022;DHT22;7086;48.116;11.580;2022-10-16T03:30:42;14.60;94.90
14022;DHT22;7086;48.116;11.580;2022-10-16T03:34:51;14.60;94.90
14022;DHT22;7086;48.116;11.580;2022-10-16T03:41:06;14.60;95.20
14022;DHT22;7086;48.116;11.580;2022-10-16T03:44:19;14.60;95.20
14022;DHT22;7086;48.116;11.580;2022-10-16T03:47:22;14.60;95.20
14022;DHT22;7086;48.116;11.580;2022-10-16T03:50:26;14.60;95.30
14022;DHT22;7086;48.116;11.580;2022-10-16T03:53:56;14.70;95.30
14022;DHT22;7086;48.116;11.580;2022-10-16T03:57:25;14.70;95.40
14022;DHT22;7086;48.116;11.580;2022-10-16T04:02:21;14.70;95.30
14022;DHT22;7086;48.116;11.580;2022-10-16T04:03:50;14.80;95.40
14022;DHT22;7086;48.116;11.580;2022-10-16T04:06:45;14.90;95.30
14022;DHT22;7086;48.116;11.580;2022-10-16T04:10:29;14.90;95.10
14022;DHT22;7086;48.116;11.580;2022-10-16T04:13:46;14.90;95.00
14022;DHT22;7086;48.116;11.580;2022-10-16T04:17:11;15.00;94.90
14022;DHT22;7086;48.116;11.580;2022-10-16T04:20:42;15.00;95.00
14022;DHT22;7086;48.116;11.580;2022-10-16T04:23:52;15.30;94.90
14022;DHT22;7086;48.116;11.580;2022-10-16T04:31:38;15.10;94.70
14022;DHT22;7086;48.116;11.580;2022-10-16T04:34:23;15.10;94.80
14022;DHT22;7086;48.116;11.580;2022-10-16T04:39:30;15.20;94.80
14022;DHT22;7086;48.116;11.580;2022-10-16T04:44:39;15.20;94.70
14022;DHT22;7086;48.116;11.580;2022-10-16T04:47:14;13.00;93.90
14022;DHT22;7086;48.116;11.580;2022-10-16T04:54:40;15.20;94.60
14022;DHT22;7086;48.116;11.580;2022-10-16T04:57:14;15.20;94.60
14022;DHT22;7086;48.116;11.580;2022-10-16T05:02:19;15.20;94.70
14022;DHT22;7086;48.116;11.580;2022-10-16T05:07:28;15.20;94.70
14022;DHT22;7086;48.116;11.580;2022-10-16T05:15:15;15.20;94.30
14022;DHT22;7086;48.116;11.580;2022-10-16T05:17:56;15.20;94.80
14022;DHT22;7086;48.116;11.580;2022-10-16T05:20:27;15.20;94.20
14022;DHT22;7086;48.116;11.580;2022-10-16T05:22:59;15.20;94.70
14022;DHT22;7086;48.116;11.580;2022-10-16T05:25:32;15.20;94.80
14022;DHT22;7086;48.116;11.580;2022-10-16T05:28:12;13.40;94.20
14022;DHT22;7086;48.116;11.580;2022-10-16T05:30:45;15.20;94.70
14022;DHT22;7086;48.116;11.580;2022-10-16T05:33:31;15.20;94.60
14022;DHT22;7086;48.116;11.580;2022-10-16T05:36:03;15.20;94.70
14022;DHT22;7086;48.116;11.580;2022-10-16T05:38:34;15.30;94.80
14022;DHT22;7086;48.116;11.580;2022-10-16T05:41:05;15.30;94.70
14022;DHT22;7086;48.116;11.580;2022-10-16T05:43:38;15.30;94.80
14022;DHT22;7086;48.116;11.580;2022-10-16T05:48:52;15.30;94.80
14022;DHT22;7086;48.116;11.580;2022-10-16T05:51:40;15.30;94.80
14022;DHT22;7086;48.116;11.580;2022-10-16T05:56:45;15.40;94.80
14022;DHT22;7086;48.116;11.580;2022-10-16T06:04:22;15.40;94.70
14022;DHT22;7086;48.116;11.580;2022-10-16T06:13:09;15.50;94.70
14022;DHT22;7086;48.116;11.580;2022-10-16T06:16:49;15.50;94.70
14022;DHT22;7086;48.116;11.580;2022-10-16T06:22:07;15.50;94.70
14022;DHT22;7086;48.116;11.580;2022-10-16T06:28:33;15.60;94.70
14022;DHT22;7086;48.116;11.580;2022-10-16T06:31:30;15.60;94.60
14022;DHT22;7086;48.116;11.580;2022-10-16T06:42:28;15.80;94.60
14022;DHT22;7086;48.116;11.580;2022-10-16T06:45:28;15.90;94.40
14022;DHT22;7086;48.116;11.580;2022-10-16T06:48:35;15.90;94.40
14022;DHT22;7086;48.116;11.580;2022-10-16T06:51:18;16.00;94.30
14022;DHT22;7086;48.116;11.580;2022-10-16T06:54:32;16.00;94.30
14022;DHT22;7086;48.116;11.580;2022-10-16T06:57:29;16.10;94.20
14022;DHT22;7086;48.116;11.580;2022-10-16T07:00:40;16.10;94.20
14022;DHT22;7086;48.116;11.580;2022-10-16T07:07:21;16.30;94.20
14022;DHT22;7086;48.116;11.580;2022-10-16T07:10:29;16.30;94.10
14022;DHT22;7086;48.116;11.580;2022-10-16T07:13:38;16.50;94.00
14022;DHT22;7086;48.116;11.580;2022-10-16T07:16:51;16.60;94.00
14022;DHT22;7086;48.116;11.580;2022-10-16T07:20:01;16.70;94.00
14022;DHT22;7086;48.116;11.580;2022-10-16T07:23:25;16.80;93.90
14022;DHT22;7086;48.116;11.580;2022-10-16T07:29:22;17.10;93.80
14022;DHT22;7086;48.116;11.580;2022-10-16T07:36:43;17.60;93.90
14022;DHT22;7086;48.116;11.580;2022-10-16T07:40:26;18.70;94.00
14022;DHT22;7086;48.116;11.580;2022-10-16T07:43:59;18.40;94.80
14022;DHT22;7086;48.116;11.580;2022-10-16T07:55:24;21.50;94.80
14022;DHT22;7086;48.116;11.580;2022-10-16T08:01:48;23.90;90.20
14022;DHT22;7086;48.116;11.580;2022-10-16T08:04:47;26.20;85.70
14022;DHT22;7086;48.116;11.580;2022-10-16T08:07:59;25.10;82.30
14022;DHT22;7086;48.116;11.580;2022-10-16T08:11:16;25.70;80.10
14022;DHT22;7086;48.116;11.580;2022-10-16T08:14:32;26.40;77.90
14022;DHT22;7086;48.116;11.580;2022-10-16T08:18:05;27.10;76.10
14022;DHT22;7086;48.116;11.580;2022-10-16T08:21:23;27.90;73.40
14022;DHT22;7086;48.116;11.580;2022-10-16T08:24:21;28.60;70.50
14022;DHT22;7086;48.116;11.580;2022-10-16T08:28:11;29.20;67.50
14022;DHT22;7086;48.116;11.580;2022-10-16T08:31:05;29.80;65.40
14022;DHT22;7086;48.116;11.580;2022-10-16T08:33:47;30.30;63.20
14022;DHT22;7086;48.116;11.580;2022-10-16T08:36:43;30.70;61.50
14022;DHT22;7086;48.116;11.580;2022-10-16T08:39:37;31.00;59.00
14022;DHT22;7086;48.116;11.580;2022-10-16T08:42:37;31.30;58.40
14022;DHT22;7086;48.116;11.580;2022-10-16T08:45:32;31.60;57.20
14022;DHT22;7086;48.116;11.580;2022-10-16T08:48:23;32.00;57.60
14022;DHT22;7086;48.116;11.580;2022-10-16T08:51:18;32.20;56.20
14022;DHT22;7086;48.116;11.580;2022-10-16T08:53:56;32.50;55.00
14022;DHT22;7086;48.116;11.580;2022-10-16T08:56:54;32.70;54.00
14022;DHT22;7086;48.116;11.580;2022-10-16T09:01:51;33.10;52.60
14022;DHT22;7086;48.116;11.580;2022-10-16T09:04:52;33.10;51.50
14022;DHT22;7086;48.116;11.580;2022-10-16T09:07:33;33.20;51.60
14022;DHT22;7086;48.116;11.580;2022-10-16T09:10:20;33.40;51.80
14022;DHT22;7086;48.116;11.580;2022-10-16T09:13:06;33.50;51.60
14022;DHT22;7086;48.116;11.580;2022-10-16T09:15:47;33.60;51.30
14022;DHT22;7086;48.116;11.580;2022-10-16T09:18:29;33.80;50.00
14022;DHT22;7086;48.116;11.580;2022-10-16T09:21:09;33.90;49.50
14022;DHT22;7086;48.116;11.580;2022-10-16T09:26:13;34.00;48.00
14022;DHT22;7086;48.116;11.580;2022-10-16T09:28:45;34.00;48.40
14022;DHT22;7086;48.116;11.580;2022-10-16T09:34:20;34.10;47.50
14022;DHT22;7086;48.116;11.580;2022-10-16T09:37:04;34.00;46.80
14022;DHT22;7086;48.116;11.580;2022-10-16T09:39:50;34.10;46.90
14022;DHT22;7086;48.116;11.580;2022-10-16T09:42:22;34.10;46.50
14022;DHT22;7086;48.116;11.580;2022-10-16T09:45:05;34.10;46.50
14022;DHT22;7086;48.116;11.580;2022-10-16T09:47:55;34.10;46.20
14022;DHT22;7086;48.116;11.580;2022-10-16T09:50:35;34.10;45.90
14022;DHT22;7086;48.116;11.580;2022-10-16T09:53:14;32.70;44.40
14022;DHT22;7086;48.116;11.580;2022-10-16T09:55:53;34.10;45.00
14022;DHT22;7086;48.116;11.580;2022-10-16T09:58:29;34.20;44.70
14022;DHT22;7086;48.116;11.580;2022-10-16T10:01:17;35.70;45.40
14022;DHT22;7086;48.116;11.580;2022-10-16T10:04:22;34.10;44.60
14022;DHT22;7086;48.116;11.580;2022-10-16T10:07:30;34.00;44.40
14022;DHT22;7086;48.116;11.580;2022-10-16T10:10:26;33.90;44.50
14022;DHT22;7086;48.116;11.580;2022-10-16T10:13:28;33.80;44.40
14022;DHT22;7086;48.116;11.580;2022-10-16T10:16:05;33.80;44.10
14022;DHT22;7086;48.116;11.580;2022-10-16T10:18:34;33.80;44.00
14022;DHT22;7086;48.116;11.580;2022-10-16T10:21:03;33.80;42.90
14022;DHT22;7086;48.116;11.580;2022-10-16T10:26:03;33.60;42.60
14022;DHT22;7086;48.116;11.580;2022-10-16T10:28:58;33.60;42.60
14022;DHT22;7086;48.116;11.580;2022-10-16T10:31:38;33.50;42.70
14022;DHT22;7086;48.116;11.580;2022-10-16T10:34:26;33.50;42.40
14022;DHT22;7086;48.116;11.580;2022-10-16T10:37:24;33.40;42.80
14022;DHT22;7086;48.116;11.580;2022-10-16T10:40:11;33.50;42.60
14022;DHT22;7086;48.116;11.580;2022-10-16T10:42:53;37.20;44.90
14022;DHT22;7086;48.116;11.580;2022-10-16T10:45:38;33.50;42.70
14022;DHT22;7086;48.116;11.580;2022-10-16T10:48:20;33.60;41.80
14022;DHT22;7086;48.116;11.580;2022-10-16T10:51:03;33.60;41.70
14022;DHT22;7086;48.116;11.580;2022-10-16T10:53:41;33.60;41.80
14022;DHT22;7086;48.116;11.580;2022-10-16T10:56:24;33.60;41.70
14022;DHT22;7086;48.116;11.580;2022-10-16T10:59:25;33.60;41.80
14022;DHT22;7086;48.116;11.580;2022-10-16T11:02:04;33.60;42.10
14022;DHT22;7086;48.116;11.580;2022-10-16T11:04:59;33.70;41.70
14022;DHT22;7086;48.116;11.580;2022-10-16T11:07:42;33.70;41.70
14022;DHT22;7086;48.116;11.580;2022-10-16T11:10:18;33.80;41.20
14022;DHT22;7086;48.116;11.580;2022-10-16T11:12:52;33.90;41.30
14022;DHT22;7086;48.116;11.580;2022-10-16T11:15:29;33.90;41.00
14022;DHT22;7086;48.116;11.580;2022-10-16T11:18:04;33.90;40.70
14022;DHT22;7086;48.116;11.580;2022-10-16T11:20:39;33.80;40.30
14022;DHT22;7086;48.116;11.580;2022-10-16T11:23:21;33.80;40.40
14022;DHT22;7086;48.116;11.580;2022-10-16T11:26:55;33.60;40.40
14022;DHT22;7086;48.116;11.580;2022-10-16T11:29:40;33.50;40.40
14022;DHT22;7086;48.116;11.580;2022-10-16T11:32:47;35.10;41.80
14022;DHT22;7086;48.116;11.580;2022-10-16T11:35:38;33.30;41.10
14022;DHT22;7086;48.116;11.580;2022-10-16T11:38:24;33.30;41.00
14022;DHT22;7086;48.116;11.580;2022-10-16T11:41:08;32.30;39.50
14022;DHT22;7086;48.116;11.580;2022-10-16T11:44:03;33.30;39.90
14022;DHT22;7086;48.116;11.580;2022-10-16T11:46:57;33.10;39.40
14022;DHT22;7086;48.116;11.580;2022-10-16T11:49:34;32.80;39.30
14022;DHT22;7086;48.116;11.580;2022-10-16T11:52:12;32.60;38.50
14022;DHT22;7086;48.116;11.580;2022-10-16T11:54:49;32.10;39.10
14022;DHT22;7086;48.116;11.580;2022-10-16T11:57:24;31.80;39.20
14022;DHT22;7086;48.116;11.580;2022-10-16T12:00:01;31.40;39.60
14022;DHT22;7086;48.116;11.580;2022-10-16T12:02:44;31.00;39.70
14022;DHT22;7086;48.116;11.580;2022-10-16T12:05:28;30.60;40.20
14022;DHT22;7086;48.116;11.580;2022-10-16T12:08:12;30.20;40.30
14022;DHT22;7086;48.116;11.580;2022-10-16T12:11:38;29.90;40.70
14022;DHT22;7086;48.116;11.580;2022-10-16T12:17:24;29.40;41.00
14022;DHT22;7086;48.116;11.580;2022-10-16T12:20:26;29.20;41.80
14022;DHT22;7086;48.116;11.580;2022-10-16T12:23:05;29.20;41.60
14022;DHT22;7086;48.116;11.580;2022-10-16T12:25:35;28.80;42.20
14022;DHT22;7086;48.116;11.580;2022-10-16T12:28:27;28.70;42.30
14022;DHT22;7086;48.116;11.580;2022-10-16T12:30:57;28.50;42.50
14022;DHT22;7086;48.116;11.580;2022-10-16T12:33:29;28.30;42.60
14022;DHT22;7086;48.116;11.580;2022-10-16T12:36:02;28.30;42.90
14022;DHT22;7086;48.116;11.580;2022-10-16T12:38:37;28.30;43.10
14022;DHT22;7086;48.116;11.580;2022-10-16T12:41:25;28.20;43.10
14022;DHT22;7086;48.116;11.580;2022-10-16T12:44:05;28.20;43.20
14022;DHT22;7086;48.116;11.580;2022-10-16T12:49:35;28.10;43.50
14022;DHT22;7086;48.116;11.580;2022-10-16T12:52:27;28.00;43.70
14022;DHT22;7086;48.116;11.580;2022-10-16T12:55:04;28.00;43.70
14022;DHT22;7086;48.116;11.580;2022-10-16T12:57:42;27.90;44.00
14022;DHT22;7086;48.116;11.580;2022-10-16T13:00:24;27.90;44.30
14022;DHT22;7086;48.116;11.580;2022-10-16T13:03:25;27.90;44.40
14022;DHT22;7086;48.116;11.580;2022-10-16T13:06:19;27.90;44.40
14022;DHT22;7086;48.116;11.580;2022-10-16T13:09:07;27.90;44.60
14022;DHT22;7086;48.116;11.580;2022-10-16T13:12:06;27.90;44.30
14022;DHT22;7086;48.116;11.580;2022-10-16T13:17:56;27.90;44.70
14022;DHT22;7086;48.116;11.580;2022-10-16T13:20:35;27.90;44.30
14022;DHT22;7086;48.116;11.580;2022-10-16T13:23:15;27.80;44.50
14022;DHT22;7086;48.116;11.580;2022-10-16T13:26:01;27.80;44.70
14022;DHT22;7086;48.116;11.580;2022-10-16T13:28:38;27.80;44.80
14022;DHT22;7086;48.116;11.580;2022-10-16T13:31:13;27.80;44.90
14022;DHT22;7086;48.116;11.580;2022-10-16T13:33:53;27.80;44.90
14022;DHT22;7086;48.116;11.580;2022-10-16T13:36:27;27.80;45.00
14022;DHT22;7086;48.116;11.580;2022-10-16T13:39:12;27.80;44.90
14022;DHT22;7086;48.116;11.580;2022-10-16T13:44:15;27.80;44.80
14022;DHT22;7086;48.116;11.580;2022-10-16T13:47:03;27.80;44.90
14022;DHT22;7086;48.116;11.580;2022-10-16T13:49:58;27.70;44.90
14022;DHT22;7086;48.116;11.580;2022-10-16T13:52:50;27.70;44.90
14022;DHT22;7086;48.116;11.580;2022-10-16T14:04:30;24.70;43.00
14022;DHT22;7086;48.116;11.580;2022-10-16T14:07:25;27.60;44.90
14022;DHT22;7086;48.116;11.580;2022-10-16T14:10:02;27.60;45.00
14022;DHT22;7086;48.116;11.580;2022-10-16T14:13:05;27.60;45.30
14022;DHT22;7086;48.116;11.580;2022-10-16T14:16:38;27.50;45.20
14022;DHT22;7086;48.116;11.580;2022-10-16T14:19:20;27.60;45.30
14022;DHT22;7086;48.116;11.580;2022-10-16T14:22:36;27.50;45.40
14022;DHT22;7086;48.116;11.580;2022-10-16T14:25:24;27.50;45.40
14022;DHT22;7086;48.116;11.580;2022-10-16T14:28:22;27.40;45.20
14022;DHT22;7086;48.116;11.580;2022-10-16T14:31:25;27.40;45.20
14022;DHT22;7086;48.116;11.580;2022-10-16T14:37:40;27.30;45.30
14022;DHT22;7086;48.116;11.580;2022-10-16T14:40:29;27.20;45.40
14022;DHT22;7086;48.116;11.580;2022-10-16T14:43:26;23.40;43.20
14022;DHT22;7086;48.116;11.580;2022-10-16T14:46:38;27.00;45.30
14022;DHT22;7086;48.116;11.580;2022-10-16T14:49:27;26.90;45.40
14022;DHT22;7086;48.116;11.580;2022-10-16T14:52:24;26.90;45.50
14022;DHT22;7086;48.116;11.580;2022-10-16T14:55:18;26.80;45.50
14022;DHT22;7086;48.116;11.580;2022-10-16T15:00:45;26.60;45.40
14022;DHT22;7086;48.116;11.580;2022-10-16T15:03:19;26.60;45.60
14022;DHT22;7086;48.116;11.580;2022-10-16T15:06:03;26.50;45.70
14022;DHT22;7086;48.116;11.580;2022-10-16T15:11:18;26.30;45.70
14022;DHT22;7086;48.116;11.580;2022-10-16T15:14:01;26.20;45.80
14022;DHT22;7086;48.116;11.580;2022-10-16T15:16:33;26.10;46.10
14022;DHT22;7086;48.116;11.580;2022-10-16T15:19:16;26.00;46.40
14022;DHT22;7086;48.116;11.580;2022-10-16T15:21:48;26.00;46.20
14022;DHT22;7086;48.116;11.580;2022-10-16T15:24:23;24.30;45.10
14022;DHT22;7086;48.116;11.580;2022-10-16T15:26:58;25.80;46.70
14022;DHT22;7086;48.116;11.580;2022-10-16T15:32:16;25.70;47.20
14022;DHT22;7086;48.116;11.580;2022-10-16T15:43:24;25.40;48.30
14022;DHT22;7086;48.116;11.580;2022-10-16T15:46:20;25.30;48.60
14022;DHT22;7086;48.116;11.580;2022-10-16T15:48:57;25.20;48.70
14022;DHT22;7086;48.116;11.580;2022-10-16T15:53:58;25.10;49.40
14022;DHT22;7086;48.116;11.580;2022-10-16T16:01:32;24.80;50.10
14022;DHT22;7086;48.116;11.580;2022-10-16T16:08:58;24.60;50.80
14022;DHT22;7086;48.116;11.580;2022-10-16T16:21:22;24.20;51.80
14022;DHT22;7086;48.116;11.580;2022-10-16T16:23:50;24.20;52.10
14022;DHT22;7086;48.116;11.580;2022-10-16T16:26:23;24.00;52.30
14022;DHT22;7086;48.116;11.580;2022-10-16T16:31:26;23.90;52.70
14022;DHT22;7086;48.116;11.580;2022-10-16T16:41:25;23.60;53.40
14022;DHT22;7086;48.116;11.580;2022-10-16T16:58:56;23.10;54.80
14022;DHT22;7086;48.116;11.580;2022-10-16T17:09:02;22.90;55.60
14022;DHT22;7086;48.116;11.580;2022-10-16T17:16:31;22.70;56.20
14022;DHT22;7086;48.116;11.580;2022-10-16T17:28:59;22.40;57.30
14022;DHT22;7086;48.116;11.580;2022-10-16T18:06:39;21.50;60.20
14022;DHT22;7086;48.116;11.580;2022-10-16T18:09:10;21.50;60.50
14022;DHT22;7086;48.116;11.580;2022-10-16T18:11:48;21.30;60.50
14022;DHT22;7086;48.116;11.580;2022-10-16T18:14:31;21.30;60.50
14022;DHT22;7086;48.116;11.580;2022-10-16T18:17:03;21.30;61.20
14022;DHT22;7086;48.116;11.580;2022-10-16T18:22:33;21.80;62.20
14022;DHT22;7086;48.116;11.580;2022-10-16T18:25:06;21.00;61.40
14022;DHT22;7086;48.116;11.580;2022-10-16T18:30:24;20.90;62.50
14022;DHT22;7086;48.116;11.580;2022-10-16T18:33:01;20.80;62.50
14022;DHT22;7086;48.116;11.580;2022-10-16T18:38:10;20.80;63.20
14022;DHT22;7086;48.116;11.580;2022-10-16T18:40:45;20.70;63.40
14022;DHT22;7086;48.116;11.580;2022-10-16T18:46:00;20.60;64.00
14022;DHT22;7086;48.116;11.580;2022-10-16T18:48:36;20.60;64.10
14022;DHT22;7086;48.116;11.580;2022-10-16T18:51:07;20.50;64.00
14022;DHT22;7086;48.116;11.580;2022-10-16T18:53:41;20.40;64.50
14022;DHT22;7086;48.116;11.580;2022-10-16T18:56:18;20.40;64.80
14022;DHT22;7086;48.116;11.580;2022-10-16T18:59:27;20.40;65.10
14022;DHT22;7086;48.116;11.580;2022-10-16T19:01:55;20.30;65.50
14022;DHT22;7086;48.116;11.580;2022-10-16T19:06:58;20.20;66.20
14022;DHT22;7086;48.116;11.580;2022-10-16T19:09:37;20.10;66.70
14022;DHT22;7086;48.116;11.580;2022-10-16T19:12:08;20.10;67.00
14022;DHT22;7086;48.116;11.580;2022-10-16T19:22:03;19.90;67.80
14022;DHT22;7086;48.116;11.580;2022-10-16T19:24:43;19.80;68.10
14022;DHT22;7086;48.116;11.580;2022-10-16T19:37:03;19.50;69.20
14022;DHT22;7086;48.116;11.580;2022-10-16T19:42:00;19.70;70.10
14022;DHT22;7086;48.116;11.580;2022-10-16T19:56:48;19.30;71.40
14022;DHT22;7086;48.116;11.580;2022-10-16T20:06:42;19.00;72.30
14022;DHT22;7086;48.116;11.580;2022-10-16T20:16:37;18.90;73.50
14022;DHT22;7086;48.116;11.580;2022-10-16T20:26:35;18.70;74.60
14022;DHT22;7086;48.116;11.580;2022-10-16T20:29:41;18.60;74.60
14022;DHT22;7086;48.116;11.580;2022-10-16T21:54:23;17.50;80.40
14022;DHT22;7086;48.116;11.580;2022-10-16T21:56:57;17.50;80.80
14022;DHT22;7086;48.116;11.580;2022-10-16T22:07:37;17.30;80.80
14022;DHT22;7086;48.116;11.580;2022-10-16T22:10:19;12.70;78.70
14022;DHT22;7086;48.116;11.580;2022-10-16T22:13:05;15.10;80.40
14022;DHT22;7086;48.116;11.580;2022-10-16T22:15:53;17.20;82.20
14022;DHT22;7086;48.116;11.580;2022-10-16T22:18:25;17.10;82.10
14022;DHT22;7086;48.116;11.580;2022-10-16T22:21:22;17.10;82.20
14022;DHT22;7086;48.116;11.580;2022-10-16T22:24:34;17.00;81.80
14022;DHT22;7086;48.116;11.580;2022-10-16T22:27:33;17.00;82.10
14022;DHT22;7086;48.116;11.580;2022-10-16T22:30:41;16.90;82.50
14022;DHT22;7086;48.116;11.580;2022-10-16T22:49:15;16.70;82.50
14022;DHT22;7086;48.116;11.580;2022-10-16T22:52:04;16.60;82.20
14022;DHT22;7086;48.116;11.580;2022-10-16T22:55:02;16.60;82.10
14022;DHT22;7086;48.116;11.580;2022-10-16T22:57:48;16.60;82.20
14022;DHT22;7086;48.116;11.580;2022-10-16T23:00:30;16.60;82.40
14022;DHT22;7086;48.116;11.580;2022-10-16T23:03:22;16.50;82.20
14022;DHT22;7086;48.116;11.580;2022-10-16T23:06:22;16.60;82.20
14022;DHT22;7086;48.116;11.580;2022-10-16T23:09:33;16.50;82.00
14022;DHT22;7086;48.116;11.580;2022-10-16T23:14:48;16.50;82.30
14022;DHT22;7086;48.116;11.580;2022-10-16T23:22:35;16.40;82.80
14022;DHT22;7086;48.116;11.580;2022-10-16T23:28:32;16.00;81.80
14022;DHT22;7086;48.116;11.580;2022-10-16T23:31:59;16.30;82.50
14022;DHT22;7086;48.116;11.580;2022-10-16T23:35:32;16.20;82.50
14022;DHT22;7086;48.116;11.580;2022-10-16T23:38:36;16.20;82.50
14022;DHT22;7086;48.116;11.580;2022-10-16T23:41:27;16.10;82.80
14022;DHT22;7086;48.116;11.580;2022-10-16T23:44:08;16.10;82.90
14022;DHT22;7086;48.116;11.580;2022-10-16T23:47:05;16.00;83.10
14022;DHT22;7086;48.116;11.580;2022-10-16T23:50:17;16.00;83.30
14022;DHT22;7086;48.116;11.580;2022-10-16T23:53:17;15.90;83.50
14022;DHT22;7086;48.116;11.580;2022-10-16T23:56:08;15.90;83.60
14022;DHT22;7086;48.116;11.580;2022-10-16T23:59:09;15.80;83.40
